Time;durP1;ratioP1;P1;durP2;ratioP2;P2;SDS_P1;SDS_P2;PMS_P1;PMS_P2;Temp;Humidity;BMP_temperature;BMP_pressure;BME280_temperature;BME280_humidity;BME280_pressure;Samples;Min_cycle;Max_cycle;Signal;HPM_P1;HPM_P2
2023/09/29 00:00:27;;;;;;;8.03;5.20;;;20.30;99.90;;;;;;5023632;28;20442;-79
2023/09/29 00:02:54;;;;;;;8.13;5.60;;;20.30;99.90;;;;;;5009129;28;20431;-80
2023/09/29 00:05:21;;;;;;;6.80;5.67;;;20.30;99.90;;;;;;5029218;28;20208;-80
2023/09/29 00:07:47;;;;;;;8.70;6.53;;;20.30;99.90;;;;;;5028974;28;20531;-79
2023/09/29 00:10:17;;;;;;;6.67;5.20;;;20.30;99.90;;;;;;5029218;28;21005;-80
2023/09/29 00:12:43;;;;;;;6.57;5.83;;;20.30;99.90;;;;;;5027269;28;20177;-76
2023/09/29 00:15:10;;;;;;;6.83;4.97;;;20.30;99.90;;;;;;5021973;28;20473;-79
2023/09/29 00:17:36;;;;;;;7.13;6.00;;;20.30;99.90;;;;;;5034701;28;20458;-78
2023/09/29 00:20:11;;;;;;;8.90;5.90;;;20.30;99.90;;;;;;5003438;28;20797;-78
2023/09/29 00:22:37;;;;;;;8.17;5.90;;;20.30;99.90;;;;;;5033801;28;20564;-78
2023/09/29 00:25:05;;;;;;;10.60;5.70;;;20.30;99.90;;;;;;5023317;28;20458;-77
2023/09/29 00:27:30;;;;;;;6.10;5.10;;;20.20;99.90;;;;;;5028495;28;20461;-78
2023/09/29 00:29:56;;;;;;;7.53;6.20;;;20.20;99.90;;;;;;5015175;28;20458;-77
2023/09/29 00:32:22;;;;;;;9.87;5.57;;;20.20;99.90;;;;;;5021270;28;20563;-77
2023/09/29 00:34:47;;;;;;;10.70;6.60;;;20.20;99.90;;;;;;5020205;28;20265;-78
2023/09/29 00:37:14;;;;;;;9.33;6.13;;;20.20;99.90;;;;;;5003871;28;20185;-78
2023/09/29 00:39:40;;;;;;;9.87;6.30;;;20.20;99.90;;;;;;5022387;28;20216;-77
2023/09/29 00:42:06;;;;;;;6.97;5.80;;;20.10;99.90;;;;;;5025963;28;20930;-78
2023/09/29 00:44:35;;;;;;;7.43;5.80;;;20.10;99.90;;;;;;5021212;28;20688;-78
2023/09/29 00:47:05;;;;;;;8.30;6.10;;;20.10;99.90;;;;;;5020287;28;20326;-78
2023/09/29 00:49:31;;;;;;;7.40;6.00;;;20.10;99.90;;;;;;5002807;28;20431;-77
2023/09/29 00:52:00;;;;;;;7.60;6.67;;;20.10;99.90;;;;;;5025093;28;20431;-78
2023/09/29 00:54:35;;;;;;;8.20;6.23;;;20.10;99.90;;;;;;5024860;28;20442;-78
2023/09/29 00:57:04;;;;;;;8.73;6.70;;;20.10;99.90;;;;;;5020742;28;20438;-77
2023/09/29 00:59:31;;;;;;;9.83;6.30;;;20.10;99.90;;;;;;5021616;28;20485;-78
2023/09/29 01:01:58;;;;;;;9.27;6.60;;;20.10;99.90;;;;;;5019619;28;20419;-77
2023/09/29 01:04:23;;;;;;;7.90;6.47;;;20.10;99.90;;;;;;5019802;28;20826;-77
2023/09/29 01:06:50;;;;;;;10.23;6.37;;;20.00;99.90;;;;;;5019147;28;20988;-77
2023/09/29 01:09:16;;;;;;;9.20;6.70;;;20.00;99.90;;;;;;5019250;28;20664;-78
2023/09/29 01:11:46;;;;;;;8.57;6.40;;;20.00;99.90;;;;;;5004112;28;20462;-78
2023/09/29 01:14:12;;;;;;;7.77;6.37;;;19.90;99.90;;;;;;5024140;28;20423;-79
2023/09/29 01:16:39;;;;;;;7.80;6.43;;;19.90;99.90;;;;;;5026009;28;20527;-79
2023/09/29 01:19:11;;;;;;;10.87;7.10;;;19.90;99.90;;;;;;5002578;28;20522;-78
2023/09/29 01:21:39;;;;;;;7.80;6.20;;;20.00;99.90;;;;;;5032271;28;20515;-79
2023/09/29 01:24:07;;;;;;;9.17;6.57;;;19.90;99.90;;;;;;5028243;28;20435;-79
2023/09/29 01:26:32;;;;;;;8.07;6.20;;;20.00;99.90;;;;;;5028962;28;20423;-77
2023/09/29 01:28:58;;;;;;;8.50;6.00;;;20.00;99.90;;;;;;5019239;28;20433;-77
2023/09/29 01:31:24;;;;;;;7.63;6.40;;;20.00;99.90;;;;;;5016129;28;20189;-77
2023/09/29 01:33:50;;;;;;;7.50;6.13;;;20.00;99.90;;;;;;5023316;28;20213;-77
2023/09/29 01:36:16;;;;;;;7.57;5.90;;;20.00;99.90;;;;;;5021197;28;20185;-77
2023/09/29 01:38:42;;;;;;;7.57;6.20;;;20.00;99.90;;;;;;5020362;28;20180;-77
2023/09/29 01:41:08;;;;;;;7.47;6.67;;;20.00;99.90;;;;;;5036065;28;20551;-77
2023/09/29 01:43:34;;;;;;;7.43;5.97;;;20.00;99.90;;;;;;5021885;28;20826;-78
2023/09/29 01:46:00;;;;;;;8.40;6.03;;;19.90;99.90;;;;;;5033733;28;20442;-78
2023/09/29 01:48:26;;;;;;;7.83;6.40;;;19.90;99.90;;;;;;5023122;28;21125;-79
2023/09/29 01:50:52;;;;;;;8.73;6.53;;;19.90;99.90;;;;;;5008338;28;20466;-79
2023/09/29 01:53:17;;;;;;;8.13;6.53;;;19.90;99.90;;;;;;5024459;28;20172;-79
2023/09/29 01:55:43;;;;;;;9.67;6.80;;;19.90;99.90;;;;;;5038641;28;20698;-79
2023/09/29 01:58:09;;;;;;;11.83;6.77;;;19.90;99.90;;;;;;5022345;28;20259;-79
2023/09/29 02:00:35;;;;;;;7.27;6.57;;;19.90;99.90;;;;;;4991422;28;20178;-79
2023/09/29 02:03:04;;;;;;;7.43;6.70;;;19.80;99.90;;;;;;5031013;28;20699;-79
2023/09/29 02:05:30;;;;;;;10.50;6.00;;;19.80;99.90;;;;;;4992919;28;20201;-79
2023/09/29 02:07:56;;;;;;;7.23;6.53;;;19.80;99.90;;;;;;5000341;28;20594;-78
2023/09/29 02:10:22;;;;;;;8.87;6.53;;;19.70;99.90;;;;;;4990673;28;20675;-79
2023/09/29 02:12:53;;;;;;;9.93;6.03;;;19.70;99.90;;;;;;5004769;28;20419;-79
2023/09/29 02:15:19;;;;;;;7.50;5.90;;;19.60;99.90;;;;;;5025732;28;20228;-79
2023/09/29 02:17:47;;;;;;;6.13;5.00;;;19.60;99.90;;;;;;5024685;28;20458;-80
2023/09/29 02:20:46;;;;;;;6.50;5.60;;;19.60;99.90;;;;;;5024973;28;20520;-80
2023/09/29 02:23:07;;;;;;;9.97;5.73;;;19.60;99.90;;;;;;5013532;28;20450;-80
2023/09/29 02:25:32;;;;;;;10.63;5.80;;;19.60;99.90;;;;;;5024894;28;20500;-80
2023/09/29 02:27:59;;;;;;;9.53;5.23;;;19.60;99.90;;;;;;5037124;28;20573;-81
2023/09/29 02:30:26;;;;;;;6.63;5.80;;;19.60;99.90;;;;;;5034069;28;20190;-81
2023/09/29 02:32:52;;;;;;;8.10;6.37;;;19.60;99.90;;;;;;5029445;28;20462;-79
2023/09/29 02:35:18;;;;;;;8.37;5.47;;;19.60;99.90;;;;;;5018868;28;20423;-78
2023/09/29 02:37:44;;;;;;;8.70;5.83;;;19.60;99.90;;;;;;5020995;28;20219;-78
2023/09/29 02:40:11;;;;;;;6.10;5.40;;;19.60;99.90;;;;;;5018352;28;20438;-79
2023/09/29 02:42:37;;;;;;;7.50;5.10;;;19.60;99.90;;;;;;5017829;28;20423;-79
2023/09/29 02:45:04;;;;;;;7.60;5.47;;;19.60;99.90;;;;;;5020642;28;20478;-79
2023/09/29 02:47:30;;;;;;;5.67;5.00;;;19.60;99.90;;;;;;5012500;28;20465;-80
2023/09/29 02:49:57;;;;;;;5.70;5.20;;;19.60;99.90;;;;;;5026184;28;20417;-79
2023/09/29 02:52:23;;;;;;;7.70;4.90;;;19.60;99.90;;;;;;5018853;28;20411;-80
2023/09/29 02:54:49;;;;;;;7.70;5.43;;;19.60;99.90;;;;;;5018742;28;20463;-78
2023/09/29 02:57:16;;;;;;;5.87;5.10;;;19.60;99.90;;;;;;5029810;28;20476;-78
2023/09/29 02:59:42;;;;;;;6.70;5.30;;;19.60;99.90;;;;;;5022327;28;20960;-78
2023/09/29 03:02:08;;;;;;;6.97;5.50;;;19.60;99.90;;;;;;5024267;28;20423;-78
2023/09/29 03:04:33;;;;;;;7.27;5.43;;;19.60;99.90;;;;;;5024210;28;20445;-78
2023/09/29 03:06:59;;;;;;;7.63;5.40;;;19.60;99.90;;;;;;5015631;28;20231;-78
2023/09/29 03:09:25;;;;;;;7.87;5.90;;;19.60;99.90;;;;;;5019806;28;20176;-79
2023/09/29 03:11:51;;;;;;;7.63;4.80;;;19.60;99.90;;;;;;5012307;28;20180;-78
2023/09/29 03:14:17;;;;;;;7.23;5.10;;;19.60;99.90;;;;;;5021769;28;20438;-78
2023/09/29 03:16:43;;;;;;;7.13;4.70;;;19.60;99.90;;;;;;5020563;28;20177;-77
2023/09/29 03:19:09;;;;;;;7.13;4.97;;;19.60;99.90;;;;;;5019785;28;20215;-77
2023/09/29 03:21:34;;;;;;;7.67;5.00;;;19.60;99.90;;;;;;5020554;28;20494;-77
2023/09/29 03:24:01;;;;;;;7.37;5.20;;;19.60;99.90;;;;;;5021483;28;20208;-78
2023/09/29 03:26:27;;;;;;;8.03;4.90;;;19.70;99.90;;;;;;5014158;28;20184;-79
2023/09/29 03:28:55;;;;;;;6.30;5.70;;;19.60;99.90;;;;;;5020104;28;20841;-77
2023/09/29 03:31:24;;;;;;;5.50;4.77;;;19.60;99.90;;;;;;5023413;28;20191;-77
2023/09/29 03:33:51;;;;;;;7.10;5.43;;;19.60;99.90;;;;;;5020781;28;20458;-77
2023/09/29 03:36:20;;;;;;;7.73;5.20;;;19.70;99.90;;;;;;5019639;28;20423;-77
2023/09/29 03:38:46;;;;;;;6.70;5.03;;;19.70;99.90;;;;;;5021589;28;20446;-77
2023/09/29 03:41:12;;;;;;;5.70;5.10;;;19.70;99.90;;;;;;5027798;28;20429;-78
2023/09/29 03:43:38;;;;;;;6.60;4.90;;;19.70;99.90;;;;;;5029437;28;20466;-78
2023/09/29 03:46:04;;;;;;;5.53;4.93;;;19.80;99.90;;;;;;5028172;28;20971;-78
2023/09/29 03:48:30;;;;;;;6.17;5.17;;;19.80;99.90;;;;;;5024121;28;20550;-78
2023/09/29 03:50:57;;;;;;;8.27;5.27;;;19.80;99.90;;;;;;5019579;28;20224;-78
2023/09/29 03:53:26;;;;;;;7.43;5.13;;;19.80;99.90;;;;;;5004514;28;20922;-78
2023/09/29 03:55:52;;;;;;;6.67;4.40;;;19.80;99.90;;;;;;5019214;28;20416;-78
2023/09/29 03:58:18;;;;;;;6.20;5.23;;;19.70;99.90;;;;;;5029897;28;20493;-78
2023/09/29 04:00:44;;;;;;;7.30;5.10;;;19.80;99.90;;;;;;5016950;28;20644;-78
2023/09/29 04:03:09;;;;;;;7.00;5.60;;;19.80;99.90;;;;;;5015184;28;20433;-78
2023/09/29 04:05:35;;;;;;;6.10;5.47;;;19.80;99.90;;;;;;5021769;28;20275;-78
2023/09/29 04:08:01;;;;;;;6.30;4.77;;;19.80;99.90;;;;;;5036366;28;20205;-80
2023/09/29 04:10:28;;;;;;;7.20;5.07;;;19.80;99.90;;;;;;5018468;28;20185;-80
2023/09/29 04:12:54;;;;;;;8.80;5.23;;;19.70;99.90;;;;;;5018807;28;20181;-80
2023/09/29 04:15:20;;;;;;;8.90;4.90;;;19.80;99.90;;;;;;5021541;28;20933;-79
2023/09/29 04:17:45;;;;;;;5.57;4.90;;;19.80;99.90;;;;;;5022180;28;20972;-79
2023/09/29 04:20:12;;;;;;;6.40;5.10;;;19.80;99.90;;;;;;5017267;28;20196;-80
2023/09/29 04:22:37;;;;;;;8.30;5.97;;;19.80;99.90;;;;;;5039647;28;20690;-80
2023/09/29 04:25:07;;;;;;;6.73;5.60;;;19.90;99.90;;;;;;5032848;28;20435;-80
2023/09/29 04:27:33;;;;;;;6.50;5.60;;;19.80;99.90;;;;;;5027628;28;20475;-81
2023/09/29 04:29:58;;;;;;;6.43;5.63;;;19.80;99.90;;;;;;5038127;28;20411;-80
2023/09/29 04:32:24;;;;;;;7.50;5.77;;;19.90;99.90;;;;;;5048599;28;20212;-81
2023/09/29 04:34:49;;;;;;;6.93;4.93;;;19.90;99.90;;;;;;5033724;28;20291;-80
2023/09/29 04:37:15;;;;;;;5.10;4.60;;;19.80;99.90;;;;;;5030630;28;20210;-81
2023/09/29 04:39:41;;;;;;;6.03;4.97;;;19.80;99.90;;;;;;5026699;28;20243;-81
2023/09/29 04:42:06;;;;;;;7.67;5.73;;;19.90;99.90;;;;;;5027185;28;20204;-81
2023/09/29 04:44:32;;;;;;;6.40;4.90;;;19.90;99.90;;;;;;5013893;28;20214;-80
2023/09/29 04:46:59;;;;;;;6.10;5.10;;;19.80;99.90;;;;;;5013966;28;20201;-80
2023/09/29 04:49:24;;;;;;;11.43;5.77;;;19.80;99.90;;;;;;5032264;28;20177;-80
2023/09/29 04:51:50;;;;;;;7.50;5.20;;;19.70;99.90;;;;;;5025294;28;20482;-78
2023/09/29 04:54:16;;;;;;;8.33;5.90;;;19.70;99.90;;;;;;5024791;28;20209;-78
2023/09/29 04:56:41;;;;;;;8.87;5.90;;;19.70;99.90;;;;;;5021102;28;20650;-78
2023/09/29 04:59:08;;;;;;;6.77;5.80;;;19.70;99.90;;;;;;5043407;28;20212;-80
2023/09/29 05:01:36;;;;;;;6.10;5.27;;;19.70;99.90;;;;;;5014122;28;20203;-80
2023/09/29 05:04:02;;;;;;;8.33;5.70;;;19.70;99.90;;;;;;5024576;28;20447;-80
2023/09/29 05:06:29;;;;;;;7.00;5.87;;;19.70;99.90;;;;;;5031583;28;20830;-80
2023/09/29 05:08:54;;;;;;;9.23;4.90;;;19.70;99.90;;;;;;5020388;28;20462;-78
2023/09/29 05:11:22;;;;;;;5.77;5.17;;;19.70;99.90;;;;;;5009497;28;20431;-81
2023/09/29 05:13:49;;;;;;;8.30;5.53;;;19.70;99.90;;;;;;5025392;28;20792;-79
2023/09/29 05:16:15;;;;;;;10.00;5.97;;;19.70;99.90;;;;;;5003587;28;20427;-79
2023/09/29 05:18:41;;;;;;;8.37;5.07;;;19.70;99.90;;;;;;5028563;28;20439;-79
2023/09/29 05:21:07;;;;;;;7.37;5.53;;;19.70;99.90;;;;;;5004578;28;20874;-75
2023/09/29 05:23:32;;;;;;;8.30;5.77;;;19.80;99.90;;;;;;5002584;28;20209;-76
2023/09/29 05:26:04;;;;;;;6.57;5.70;;;19.80;99.90;;;;;;5009227;28;20347;-76
2023/09/29 05:28:30;;;;;;;6.90;5.97;;;19.70;99.90;;;;;;5019650;28;20232;-76
2023/09/29 05:30:56;;;;;;;6.00;5.27;;;19.70;99.90;;;;;;5024833;28;21239;-76
2023/09/29 05:33:22;;;;;;;6.00;4.93;;;19.80;99.90;;;;;;5032029;28;20952;-76
2023/09/29 05:35:48;;;;;;;7.07;5.40;;;19.80;99.90;;;;;;5017351;28;20514;-75
2023/09/29 05:38:14;;;;;;;9.60;5.83;;;19.70;99.90;;;;;;5018622;28;21344;-76
2023/09/29 05:40:40;;;;;;;7.03;5.33;;;19.70;99.90;;;;;;5023018;28;20362;-77
2023/09/29 05:43:10;;;;;;;6.23;5.00;;;19.70;99.90;;;;;;5018831;28;20183;-76
2023/09/29 05:45:37;;;;;;;6.40;5.20;;;19.70;99.90;;;;;;5011485;28;20679;-76
2023/09/29 05:48:03;;;;;;;11.27;5.67;;;19.70;99.90;;;;;;5014309;28;20481;-77
2023/09/29 05:50:28;;;;;;;6.97;6.10;;;19.80;99.90;;;;;;5003396;28;20481;-77
2023/09/29 05:52:54;;;;;;;8.70;6.63;;;19.80;99.90;;;;;;5016774;28;20423;-76
2023/09/29 05:55:20;;;;;;;9.70;6.40;;;19.80;99.90;;;;;;5019213;28;20676;-76
2023/09/29 05:57:46;;;;;;;7.77;5.77;;;19.80;99.90;;;;;;5018896;28;20280;-75
2023/09/29 06:00:13;;;;;;;8.07;6.10;;;19.80;99.90;;;;;;5014974;28;20684;-76
2023/09/29 06:02:40;;;;;;;6.77;4.80;;;19.80;99.90;;;;;;5017327;28;20502;-76
2023/09/29 06:05:06;;;;;;;8.27;5.47;;;19.80;99.90;;;;;;5017592;28;20509;-77
2023/09/29 06:07:32;;;;;;;10.13;6.10;;;19.90;99.90;;;;;;5014078;28;20467;-77
2023/09/29 06:09:58;;;;;;;9.07;5.60;;;19.90;99.90;;;;;;5016951;28;20512;-75
2023/09/29 06:12:23;;;;;;;9.47;5.70;;;19.90;99.90;;;;;;4999057;28;20525;-76
2023/09/29 06:14:49;;;;;;;7.17;5.90;;;19.90;99.90;;;;;;5018473;28;20255;-74
2023/09/29 06:17:14;;;;;;;9.30;5.70;;;19.90;99.90;;;;;;5009466;28;20188;-73
2023/09/29 06:19:41;;;;;;;8.43;5.53;;;20.00;99.90;;;;;;5001378;28;20596;-74
2023/09/29 06:22:07;;;;;;;7.00;6.30;;;20.00;99.90;;;;;;5009097;28;20181;-75
2023/09/29 06:24:33;;;;;;;8.87;5.87;;;20.10;99.90;;;;;;5031949;28;21107;-75
2023/09/29 06:26:58;;;;;;;5.97;5.33;;;20.10;99.90;;;;;;5006604;28;20283;-71
2023/09/29 06:29:24;;;;;;;13.83;6.33;;;20.10;99.90;;;;;;5016716;28;20554;-75
2023/09/29 06:31:49;;;;;;;7.87;6.37;;;20.10;99.90;;;;;;4997199;28;20176;-74
2023/09/29 06:34:15;;;;;;;7.90;6.27;;;20.10;99.90;;;;;;5015161;28;20253;-75
2023/09/29 06:36:41;;;;;;;7.67;6.77;;;20.10;99.90;;;;;;5006127;28;20283;-74
2023/09/29 06:39:06;;;;;;;10.40;6.40;;;20.20;99.90;;;;;;5016466;28;20423;-74
2023/09/29 06:41:32;;;;;;;7.23;6.13;;;20.10;99.90;;;;;;5018064;28;20191;-74
2023/09/29 06:43:58;;;;;;;7.53;6.03;;;20.20;99.90;;;;;;5016668;28;20264;-76
2023/09/29 06:46:23;;;;;;;10.47;6.40;;;20.20;99.90;;;;;;4994855;28;20240;-74
2023/09/29 06:48:49;;;;;;;7.43;6.10;;;20.20;99.90;;;;;;4995103;28;20229;-75
2023/09/29 06:51:14;;;;;;;10.13;6.70;;;20.20;99.90;;;;;;5013505;28;20180;-73
2023/09/29 06:53:40;;;;;;;7.37;6.10;;;20.30;99.90;;;;;;5002325;28;20192;-74
2023/09/29 06:56:06;;;;;;;8.90;5.50;;;20.40;99.90;;;;;;5019576;28;20178;-76
2023/09/29 06:58:32;;;;;;;9.20;6.33;;;20.40;99.90;;;;;;5003873;28;20616;-75
2023/09/29 07:00:58;;;;;;;7.43;5.37;;;20.50;99.90;;;;;;5013923;28;20507;-74
2023/09/29 07:03:26;;;;;;;5.43;4.60;;;20.50;99.90;;;;;;5015994;28;20176;-74
2023/09/29 07:05:51;;;;;;;8.40;5.93;;;20.50;99.90;;;;;;5015854;28;20821;-74
2023/09/29 07:08:17;;;;;;;7.20;5.30;;;20.60;99.90;;;;;;5007600;28;20562;-74
2023/09/29 07:10:43;;;;;;;10.83;6.23;;;20.70;99.90;;;;;;4997089;28;20638;-75
2023/09/29 07:13:10;;;;;;;8.27;5.97;;;20.60;99.90;;;;;;5016863;28;20177;-74
2023/09/29 07:15:36;;;;;;;7.40;5.90;;;20.60;99.90;;;;;;5002858;28;20515;-72
2023/09/29 07:18:02;;;;;;;5.90;5.30;;;20.60;99.90;;;;;;5015549;28;20483;-73
2023/09/29 07:20:27;;;;;;;8.10;5.53;;;20.70;99.90;;;;;;5015021;28;20184;-72
2023/09/29 07:22:53;;;;;;;7.60;5.27;;;20.70;99.90;;;;;;5002965;28;20825;-73
2023/09/29 07:25:18;;;;;;;9.13;6.03;;;20.60;99.90;;;;;;5018125;28;20207;-73
2023/09/29 07:27:45;;;;;;;9.23;6.33;;;20.60;99.90;;;;;;5018985;28;20203;-73
2023/09/29 07:30:10;;;;;;;6.20;5.43;;;20.60;99.90;;;;;;5016540;28;20182;-75
2023/09/29 07:32:40;;;;;;;6.23;5.63;;;20.50;99.90;;;;;;4999446;28;20471;-73
2023/09/29 07:35:07;;;;;;;8.80;6.50;;;20.60;99.90;;;;;;5019936;28;20216;-73
2023/09/29 07:37:33;;;;;;;7.07;6.10;;;20.50;99.90;;;;;;5010739;28;20432;-73
2023/09/29 07:39:59;;;;;;;7.20;6.33;;;20.60;99.90;;;;;;5016712;28;20439;-73
2023/09/29 07:42:24;;;;;;;7.33;6.00;;;20.50;99.90;;;;;;5018675;28;20875;-73
2023/09/29 07:44:50;;;;;;;8.20;6.40;;;20.50;99.90;;;;;;5016720;28;20617;-73
2023/09/29 07:47:15;;;;;;;8.67;5.97;;;20.50;99.90;;;;;;5016642;28;20295;-72
2023/09/29 07:49:41;;;;;;;7.00;5.47;;;20.60;99.90;;;;;;5014175;28;20599;-72
2023/09/29 07:52:10;;;;;;;7.83;6.27;;;20.60;99.90;;;;;;5014427;28;20210;-73
2023/09/29 07:54:35;;;;;;;7.47;6.23;;;20.50;99.90;;;;;;5011125;28;20215;-74
2023/09/29 07:57:02;;;;;;;7.00;5.43;;;20.60;99.90;;;;;;5013950;28;20427;-73
2023/09/29 07:59:27;;;;;;;9.70;5.53;;;20.60;99.90;;;;;;5007738;28;20173;-72
2023/09/29 08:01:53;;;;;;;6.20;5.60;;;20.60;99.90;;;;;;4995735;28;21193;-72
2023/09/29 08:04:19;;;;;;;11.30;6.23;;;20.70;99.90;;;;;;4996574;28;20684;-73
2023/09/29 08:06:45;;;;;;;8.20;5.30;;;20.70;99.90;;;;;;5020325;28;20480;-72
2023/09/29 08:09:12;;;;;;;7.47;5.23;;;20.80;99.90;;;;;;5015631;28;20207;-72
2023/09/29 08:11:40;;;;;;;7.10;5.90;;;20.90;99.90;;;;;;5017749;28;20172;-73
2023/09/29 08:14:06;;;;;;;8.93;6.20;;;21.00;99.90;;;;;;5015987;28;20698;-72
2023/09/29 08:16:32;;;;;;;9.90;6.20;;;21.00;99.90;;;;;;5021012;28;20506;-73
2023/09/29 08:18:57;;;;;;;7.70;5.87;;;21.10;99.90;;;;;;5020560;28;20199;-72
2023/09/29 08:21:23;;;;;;;7.03;5.90;;;21.10;99.90;;;;;;5017651;28;20488;-73
2023/09/29 08:23:49;;;;;;;7.60;5.67;;;21.10;99.90;;;;;;5019776;28;20250;-73
2023/09/29 08:26:15;;;;;;;12.27;7.13;;;21.10;99.90;;;;;;5017564;28;20245;-72
2023/09/29 08:28:41;;;;;;;7.80;6.07;;;21.20;99.90;;;;;;5018516;28;20196;-72
2023/09/29 08:31:15;;;;;;;7.90;6.00;;;21.20;99.90;;;;;;5000715;28;20486;-72
2023/09/29 08:33:41;;;;;;;6.70;5.93;;;21.30;99.90;;;;;;5003373;28;20208;-73
2023/09/29 08:36:07;;;;;;;8.70;6.13;;;21.30;99.90;;;;;;5016755;28;20435;-72
2023/09/29 08:38:33;;;;;;;5.93;5.03;;;21.40;99.90;;;;;;5031061;28;20494;-73
2023/09/29 08:41:05;;;;;;;6.90;5.90;;;21.50;99.90;;;;;;5020911;28;20427;-72
2023/09/29 08:43:33;;;;;;;6.10;5.47;;;21.40;99.90;;;;;;5019474;28;20188;-72
2023/09/29 08:45:59;;;;;;;10.13;5.87;;;21.50;99.90;;;;;;5017356;28;20443;-73
2023/09/29 08:48:32;;;;;;;10.63;6.70;;;21.40;99.90;;;;;;5024091;28;20482;-73
2023/09/29 08:51:01;;;;;;;7.40;5.53;;;21.50;99.90;;;;;;5017370;28;21104;-73
2023/09/29 08:53:28;;;;;;;5.83;5.03;;;21.60;99.90;;;;;;5019141;28;20805;-72
2023/09/29 08:55:55;;;;;;;7.10;5.50;;;21.70;99.90;;;;;;5014185;28;20968;-72
2023/09/29 08:58:23;;;;;;;8.93;5.97;;;21.70;99.90;;;;;;5015942;28;20407;-72
2023/09/29 09:00:49;;;;;;;6.93;5.30;;;21.80;99.90;;;;;;5015791;28;20943;-72
2023/09/29 09:03:15;;;;;;;8.60;5.57;;;21.90;99.90;;;;;;5013416;28;20434;-72
2023/09/29 09:05:41;;;;;;;6.63;5.53;;;22.00;99.90;;;;;;5017729;28;20431;-73
2023/09/29 09:08:07;;;;;;;7.30;5.63;;;22.20;99.90;;;;;;5013643;28;20462;-74
2023/09/29 09:10:34;;;;;;;6.40;4.93;;;22.20;99.90;;;;;;5019021;28;20426;-73
2023/09/29 09:13:05;;;;;;;7.33;5.47;;;22.30;99.90;;;;;;5022397;28;20173;-73
2023/09/29 09:15:31;;;;;;;8.17;5.43;;;22.40;99.90;;;;;;5006023;28;20447;-73
2023/09/29 09:17:58;;;;;;;6.20;5.60;;;22.60;99.90;;;;;;5022051;28;20423;-72
2023/09/29 09:20:24;;;;;;;6.47;4.97;;;22.70;99.90;;;;;;5018454;28;20592;-73
2023/09/29 09:23:01;;;;;;;8.00;5.63;;;22.80;99.90;;;;;;5021724;28;20434;-72
2023/09/29 09:25:35;;;;;;;6.50;5.63;;;22.80;99.90;;;;;;5027476;28;20453;-76
2023/09/29 09:28:02;;;;;;;11.53;5.73;;;22.90;99.90;;;;;;5016324;28;20495;-74
2023/09/29 09:30:28;;;;;;;10.70;5.20;;;22.90;99.90;;;;;;5018904;28;20441;-74
2023/09/29 09:32:54;;;;;;;5.80;4.83;;;23.00;99.90;;;;;;5023564;28;20431;-74
2023/09/29 09:35:28;;;;;;;6.40;5.07;;;23.00;99.90;;;;;;5018124;28;20461;-73
2023/09/29 09:37:55;;;;;;;6.67;4.93;;;23.10;99.90;;;;;;5015031;28;20558;-74
2023/09/29 09:40:25;;;;;;;6.20;5.03;;;23.20;99.90;;;;;;5012150;28;20456;-70
2023/09/29 09:42:53;;;;;;;7.23;5.70;;;23.30;99.90;;;;;;5022488;28;20415;-72
2023/09/29 09:45:25;;;;;;;6.20;5.60;;;23.40;99.90;;;;;;5008130;28;20803;-73
2023/09/29 09:47:55;;;;;;;6.90;4.87;;;23.50;99.90;;;;;;5016898;28;20455;-73
2023/09/29 09:50:22;;;;;;;6.13;5.53;;;23.60;99.90;;;;;;5012878;28;20458;-73
2023/09/29 09:52:54;;;;;;;7.10;4.57;;;23.70;99.90;;;;;;5016059;28;20415;-72
2023/09/29 09:55:27;;;;;;;6.37;5.27;;;23.80;99.90;;;;;;5000228;28;20443;-73
2023/09/29 09:57:53;;;;;;;6.23;5.23;;;23.90;99.90;;;;;;5020893;28;20442;-73
2023/09/29 10:00:19;;;;;;;5.50;5.00;;;24.00;99.90;;;;;;5011462;28;20436;-72
2023/09/29 10:02:51;;;;;;;5.80;4.87;;;24.10;99.90;;;;;;5018299;28;20458;-73
2023/09/29 10:05:24;;;;;;;8.70;5.80;;;24.20;99.90;;;;;;5015623;28;21190;-73
2023/09/29 10:07:52;;;;;;;7.27;5.30;;;24.30;99.90;;;;;;5010143;28;20463;-73
2023/09/29 10:10:26;;;;;;;6.13;5.23;;;24.40;99.90;;;;;;5014618;28;20538;-72
2023/09/29 10:12:55;;;;;;;6.87;5.37;;;24.50;99.90;;;;;;5013354;28;20415;-71
2023/09/29 10:15:21;;;;;;;11.13;5.10;;;24.60;99.90;;;;;;5018906;28;20427;-72
2023/09/29 10:17:49;;;;;;;7.50;5.47;;;24.60;99.90;;;;;;5015737;28;20443;-72
2023/09/29 10:20:21;;;;;;;6.20;4.80;;;24.70;99.90;;;;;;5011058;28;20501;-72
2023/09/29 10:22:54;;;;;;;6.30;4.97;;;24.70;99.90;;;;;;5018772;28;20950;-74
2023/09/29 10:25:21;;;;;;;6.30;4.40;;;24.80;99.90;;;;;;5031280;28;20846;-72
2023/09/29 10:27:50;;;;;;;6.30;5.20;;;24.90;99.90;;;;;;5008499;28;21004;-72
2023/09/29 10:30:16;;;;;;;8.20;4.90;;;24.80;99.90;;;;;;5015779;28;20455;-76
2023/09/29 10:33:01;;;;;;;7.10;4.90;;;24.80;99.90;;;;;;5017233;28;20502;-73
2023/09/29 10:35:27;;;;;;;6.93;5.20;;;24.90;99.90;;;;;;5017112;28;20208;-71
2023/09/29 10:37:56;;;;;;;7.10;5.70;;;24.90;99.90;;;;;;5015451;28;20476;-72
2023/09/29 10:40:28;;;;;;;7.00;5.20;;;24.90;99.90;;;;;;5008402;28;20404;-73
2023/09/29 10:42:56;;;;;;;6.00;5.40;;;25.00;99.90;;;;;;5016384;28;20439;-72
2023/09/29 10:45:31;;;;;;;8.20;5.37;;;25.00;99.90;;;;;;5001078;28;20447;-73
2023/09/29 10:48:08;;;;;;;6.00;4.20;;;25.00;99.90;;;;;;5016110;28;20858;-72
2023/09/29 10:50:44;;;;;;;5.53;4.93;;;25.10;99.90;;;;;;5016389;28;20830;-72
2023/09/29 10:53:11;;;;;;;6.23;4.57;;;25.10;99.90;;;;;;5001086;28;20432;-72
2023/09/29 10:55:43;;;;;;;9.17;5.57;;;25.10;99.90;;;;;;5015295;28;20870;-72
2023/09/29 10:58:13;;;;;;;6.27;4.87;;;25.20;99.90;;;;;;5018202;28;20466;-72
2023/09/29 11:00:52;;;;;;;6.17;5.40;;;25.20;99.90;;;;;;5013753;28;20447;-73
2023/09/29 11:03:25;;;;;;;5.87;4.70;;;25.30;99.90;;;;;;4995716;28;20690;-72
2023/09/29 11:05:51;;;;;;;8.03;5.43;;;25.50;99.90;;;;;;5017631;28;20423;-73
2023/09/29 11:08:21;;;;;;;5.67;4.80;;;25.60;99.90;;;;;;5015808;28;20456;-73
2023/09/29 11:10:55;;;;;;;4.57;3.90;;;25.60;99.90;;;;;;5019310;28;20180;-74
2023/09/29 11:13:21;;;;;;;5.00;4.50;;;25.70;99.90;;;;;;5014641;28;20423;-74
2023/09/29 11:15:46;;;;;;;9.20;5.10;;;25.80;99.90;;;;;;5015200;28;20437;-74
2023/09/29 11:18:12;;;;;;;5.40;4.30;;;25.70;99.90;;;;;;5010844;28;20507;-73
2023/09/29 11:20:37;;;;;;;6.30;5.03;;;25.70;99.90;;;;;;4988685;28;20181;-74
2023/09/29 11:23:08;;;;;;;6.30;5.13;;;25.70;99.90;;;;;;5014617;28;20180;-74
2023/09/29 11:25:51;;;;;;;5.80;5.30;;;25.70;99.90;;;;;;5025739;28;20211;-73
2023/09/29 11:28:17;;;;;;;5.37;4.47;;;25.70;99.90;;;;;;4997598;28;20467;-73
2023/09/29 11:30:43;;;;;;;5.90;4.73;;;25.90;99.90;;;;;;5013317;28;21776;-73
2023/09/29 11:33:12;;;;;;;5.57;4.77;;;26.00;99.90;;;;;;5011231;28;20498;-72
2023/09/29 11:35:41;;;;;;;5.33;4.43;;;26.00;99.90;;;;;;5018308;28;20530;-72
2023/09/29 11:38:07;;;;;;;7.60;5.00;;;26.10;99.90;;;;;;5015474;28;21868;-74
2023/09/29 11:40:33;;;;;;;6.43;5.43;;;26.30;99.90;;;;;;5018188;28;20427;-74
2023/09/29 11:42:59;;;;;;;5.17;4.10;;;26.50;99.90;;;;;;5014705;28;20184;-73
2023/09/29 11:45:25;;;;;;;7.60;4.63;;;26.70;99.90;;;;;;5018038;28;20820;-73
2023/09/29 11:47:51;;;;;;;5.30;4.20;;;27.00;99.90;;;;;;5004893;28;20196;-73
2023/09/29 11:50:18;;;;;;;7.23;4.97;;;27.30;99.90;;;;;;5017065;28;20430;-73
2023/09/29 11:52:43;;;;;;;6.77;4.70;;;27.90;99.90;;;;;;5018703;28;20570;-72
2023/09/29 11:55:11;;;;;;;6.60;4.90;;;30.20;99.90;;;;;;4999361;28;20446;-74
2023/09/29 11:57:40;;;;;;;5.13;4.53;;;31.70;99.90;;;;;;5017327;28;20263;-73
2023/09/29 12:00:08;;;;;;;5.27;4.60;;;32.60;99.60;;;;;;5018099;28;20811;-73
2023/09/29 12:02:35;;;;;;;4.67;4.17;;;33.20;96.30;;;;;;5020878;28;20415;-74
2023/09/29 12:05:02;;;;;;;5.70;4.30;;;34.00;92.50;;;;;;5017643;28;20438;-73
2023/09/29 12:07:28;;;;;;;5.30;4.30;;;34.40;90.40;;;;;;5017545;28;21040;-72
2023/09/29 12:09:54;;;;;;;5.03;4.23;;;34.80;86.90;;;;;;5019724;28;20404;-73
2023/09/29 12:12:19;;;;;;;4.90;4.43;;;35.20;83.40;;;;;;5022103;28;20690;-73
2023/09/29 12:14:45;;;;;;;5.30;4.80;;;35.40;80.60;;;;;;5021001;28;20205;-73
2023/09/29 12:17:10;;;;;;;6.87;4.63;;;35.70;76.40;;;;;;5004652;28;20189;-72
2023/09/29 12:19:37;;;;;;;5.13;4.23;;;34.60;76.80;;;;;;5020238;28;20188;-73
2023/09/29 12:22:03;;;;;;;6.23;4.30;;;33.50;79.50;;;;;;5019129;28;20215;-72
2023/09/29 12:24:29;;;;;;;5.90;4.70;;;32.50;83.00;;;;;;5022737;28;20443;-72
2023/09/29 12:26:54;;;;;;;7.50;5.30;;;31.10;87.20;;;;;;5018218;28;20414;-74
2023/09/29 12:29:21;;;;;;;5.10;4.60;;;30.40;90.20;;;;;;5033400;28;20225;-74
2023/09/29 12:31:49;;;;;;;6.30;5.13;;;30.00;91.70;;;;;;5025494;28;20276;-73
2023/09/29 12:34:15;;;;;;;5.40;4.83;;;29.30;93.00;;;;;;5014050;28;20515;-74
2023/09/29 12:36:41;;;;;;;5.87;4.67;;;28.90;94.50;;;;;;5013571;28;20461;-74
2023/09/29 12:39:08;;;;;;;5.50;4.70;;;28.60;95.60;;;;;;5019649;28;20835;-73
2023/09/29 12:41:36;;;;;;;5.73;4.90;;;28.30;96.40;;;;;;5012509;28;20192;-73
2023/09/29 12:44:01;;;;;;;5.43;4.40;;;28.10;97.50;;;;;;5013797;28;20526;-73